Time;durP1;ratioP1;P1;durP2;ratioP2;P2;SDS_P1;SDS_P2;PMS_P1;PMS_P2;Temp;Humidity;BMP_temperature;BMP_pressure;BME280_temperature;BME280_humidity;BME280_pressure;Samples;Min_cycle;Max_cycle;Signal;HPM_P1;HPM_P2
2021/01/24 00:00:51;;;;;;;6.25;3.92;;;5.30;99.90;;;;;;5108882;28;20078;-66
2021/01/24 00:03:18;;;;;;;9.30;4.00;;;5.30;99.90;;;;;;5107869;28;20139;-66
2021/01/24 00:05:45;;;;;;;6.55;4.03;;;5.40;99.90;;;;;;5104941;28;20459;-68
2021/01/24 00:08:12;;;;;;;5.38;3.63;;;5.30;99.90;;;;;;5107471;27;20086;-66
2021/01/24 00:10:39;;;;;;;7.68;3.72;;;5.40;99.90;;;;;;5102624;28;20109;-66
2021/01/24 00:13:05;;;;;;;4.85;3.30;;;5.50;99.90;;;;;;5114117;28;20120;-66
2021/01/24 00:15:32;;;;;;;5.00;2.85;;;5.40;99.90;;;;;;5110106;27;20567;-66
2021/01/24 00:17:58;;;;;;;4.40;2.50;;;5.50;99.90;;;;;;5109983;27;20475;-66
2021/01/24 00:20:25;;;;;;;3.70;2.55;;;5.40;99.90;;;;;;5114043;28;20078;-65
2021/01/24 00:22:52;;;;;;;4.20;2.53;;;5.40;99.90;;;;;;5110969;28;20207;-66
2021/01/24 00:25:18;;;;;;;4.38;2.92;;;5.40;99.90;;;;;;5109267;28;20079;-66
2021/01/24 00:27:45;;;;;;;7.45;3.28;;;5.60;99.90;;;;;;5113039;28;20071;-66
2021/01/24 00:30:12;;;;;;;5.95;2.58;;;5.50;99.90;;;;;;5109493;28;20485;-66
2021/01/24 00:32:39;;;;;;;4.10;2.40;;;5.60;99.90;;;;;;5113076;28;20071;-66
2021/01/24 00:35:10;;;;;;;4.80;2.78;;;5.40;99.90;;;;;;5111052;28;20440;-66
2021/01/24 00:37:37;;;;;;;4.05;2.40;;;5.40;99.90;;;;;;5106204;28;20455;-66
2021/01/24 00:40:06;;;;;;;3.92;2.50;;;5.30;99.90;;;;;;5109572;28;20063;-65
2021/01/24 00:42:32;;;;;;;7.47;2.75;;;5.40;99.90;;;;;;5109923;27;20051;-64
2021/01/24 00:44:59;;;;;;;7.57;3.17;;;5.50;99.90;;;;;;5109847;28;20040;-65
2021/01/24 00:47:25;;;;;;;5.78;2.85;;;5.50;99.90;;;;;;5113570;28;20443;-65
2021/01/24 00:49:52;;;;;;;4.80;2.78;;;5.60;99.90;;;;;;5108841;28;20572;-65
2021/01/24 00:52:18;;;;;;;3.30;2.22;;;5.60;99.90;;;;;;5112339;28;20131;-65
2021/01/24 00:54:44;;;;;;;7.13;2.80;;;5.50;99.90;;;;;;5110933;27;20044;-65
2021/01/24 00:57:10;;;;;;;4.20;2.95;;;5.60;99.90;;;;;;5109782;28;20068;-65
2021/01/24 00:59:37;;;;;;;5.95;2.45;;;5.50;99.90;;;;;;5113342;28;20464;-65
2021/01/24 01:02:04;;;;;;;5.25;2.15;;;5.50;99.90;;;;;;5108143;28;20100;-65
2021/01/24 01:04:30;;;;;;;3.75;2.42;;;5.50;99.90;;;;;;5109656;28;20043;-65
2021/01/24 01:06:58;;;;;;;5.45;2.90;;;5.50;99.90;;;;;;5113798;28;20071;-65
2021/01/24 01:09:24;;;;;;;6.20;2.58;;;5.40;99.90;;;;;;5107455;28;20066;-67
2021/01/24 01:11:51;;;;;;;6.85;2.70;;;5.50;99.90;;;;;;5114089;28;20121;-66
2021/01/24 01:14:17;;;;;;;4.63;2.40;;;5.70;99.90;;;;;;5111135;28;20047;-66
2021/01/24 01:16:43;;;;;;;4.20;2.30;;;5.50;99.90;;;;;;5107059;28;20047;-67
2021/01/24 01:19:10;;;;;;;3.35;2.15;;;5.50;99.90;;;;;;5114263;28;20039;-66
2021/01/24 01:21:40;;;;;;;6.35;2.33;;;5.30;99.90;;;;;;5108839;28;20048;-66
2021/01/24 01:24:07;;;;;;;3.65;2.10;;;5.40;99.90;;;;;;5109260;28;20126;-66
2021/01/24 01:26:35;;;;;;;3.95;1.95;;;5.40;99.90;;;;;;5108622;28;20460;-66
2021/01/24 01:29:01;;;;;;;3.85;2.22;;;5.30;99.90;;;;;;5106788;28;20545;-66
2021/01/24 01:31:28;;;;;;;4.38;2.30;;;5.40;99.90;;;;;;5103498;28;20040;-66
2021/01/24 01:33:54;;;;;;;4.00;2.28;;;5.30;99.90;;;;;;5110792;28;20071;-66
2021/01/24 01:36:20;;;;;;;3.47;1.90;;;5.40;99.90;;;;;;5108709;28;20092;-66
2021/01/24 01:38:47;;;;;;;6.78;2.30;;;5.20;99.90;;;;;;5111795;28;20499;-66
2021/01/24 01:41:13;;;;;;;3.75;2.65;;;5.40;99.90;;;;;;5108410;28;20127;-66
2021/01/24 01:43:39;;;;;;;4.13;2.55;;;5.20;99.90;;;;;;5109464;28;20066;-66
2021/01/24 01:46:05;;;;;;;4.38;2.58;;;5.20;99.90;;;;;;5111845;28;20105;-66
2021/01/24 01:48:32;;;;;;;4.20;2.40;;;5.10;99.90;;;;;;5108948;27;20051;-66
2021/01/24 01:50:59;;;;;;;2.65;2.00;;;5.30;99.90;;;;;;5111231;28;20067;-66
2021/01/24 01:53:26;;;;;;;3.67;1.95;;;5.20;99.90;;;;;;5110515;28;20155;-66
2021/01/24 01:55:53;;;;;;;4.35;2.15;;;5.10;99.90;;;;;;5105995;27;20138;-66
2021/01/24 01:58:20;;;;;;;5.53;2.38;;;5.20;99.90;;;;;;5112388;28;20048;-66
2021/01/24 02:00:49;;;;;;;3.03;1.55;;;5.30;99.90;;;;;;5108113;28;20081;-66
2021/01/24 02:03:44;;;;;;;3.75;1.77;;;5.20;99.90;;;;;;5108709;28;20056;-67
2021/01/24 02:06:28;;;;;;;3.50;1.65;;;5.20;99.90;;;;;;5097458;28;20086;-66
2021/01/24 02:09:13;;;;;;;0.95;0.75;;;5.30;99.90;;;;;;5107326;28;20076;-66
2021/01/24 02:11:49;;;;;;;2.03;1.10;;;5.20;99.90;;;;;;5104951;28;20086;-66
2021/01/24 02:14:36;;;;;;;0.90;0.60;;;5.20;99.90;;;;;;5109763;28;20075;-66
2021/01/24 02:17:11;;;;;;;2.08;0.80;;;5.20;99.90;;;;;;5111434;28;20840;-66
2021/01/24 02:20:07;;;;;;;0.90;0.63;;;5.10;99.90;;;;;;5109306;28;20040;-66
2021/01/24 02:22:39;;;;;;;0.68;0.65;;;5.10;99.90;;;;;;5102820;28;20051;-66
2021/01/24 02:25:11;;;;;;;0.77;0.68;;;5.20;99.90;;;;;;5110770;28;20469;-67
2021/01/24 02:28:01;;;;;;;0.80;0.60;;;5.20;99.90;;;;;;5106538;28;20102;-66
2021/01/24 02:30:36;;;;;;;1.05;0.60;;;5.00;99.90;;;;;;5107065;28;20146;-66
2021/01/24 02:33:08;;;;;;;0.73;0.70;;;5.00;99.90;;;;;;5111129;28;20086;-66
2021/01/24 02:35:40;;;;;;;1.02;0.70;;;4.90;99.90;;;;;;5107945;28;20448;-67
2021/01/24 02:38:08;;;;;;;1.35;0.90;;;4.90;99.90;;;;;;5107848;28;20154;-66
2021/01/24 02:40:37;;;;;;;0.60;0.55;;;4.90;99.90;;;;;;5112223;28;20043;-66
2021/01/24 02:43:06;;;;;;;0.50;0.50;;;4.90;99.90;;;;;;5107644;28;20055;-66
2021/01/24 02:45:35;;;;;;;0.80;0.70;;;4.90;99.90;;;;;;5108939;27;20078;-66
2021/01/24 02:48:02;;;;;;;0.52;0.40;;;4.90;99.90;;;;;;5111867;28;20143;-66
2021/01/24 02:50:30;;;;;;;0.68;0.52;;;4.90;99.90;;;;;;5107032;28;20479;-66
2021/01/24 02:53:00;;;;;;;0.40;0.40;;;4.90;99.90;;;;;;5106820;28;20044;-69
2021/01/24 02:55:27;;;;;;;0.50;0.50;;;4.80;99.90;;;;;;5101909;28;20044;-66
2021/01/24 02:57:55;;;;;;;0.52;0.50;;;4.80;99.90;;;;;;5105591;28;20538;-66
2021/01/24 03:00:22;;;;;;;0.40;0.40;;;5.00;99.90;;;;;;5108759;28;20391;-66
2021/01/24 03:02:50;;;;;;;1.45;0.70;;;4.70;99.90;;;;;;5111794;28;20067;-66
2021/01/24 03:05:16;;;;;;;1.00;0.40;;;4.70;99.70;;;;;;5106114;28;20054;-66
2021/01/24 03:07:43;;;;;;;0.50;0.43;;;4.70;99.80;;;;;;5111959;28;20090;-66
2021/01/24 03:10:11;;;;;;;0.40;0.40;;;4.70;99.60;;;;;;5112926;27;20055;-66
2021/01/24 03:13:03;;;;;;;0.40;0.40;;;4.70;99.80;;;;;;5117360;27;20475;-66
2021/01/24 03:15:30;;;;;;;0.40;0.40;;;4.80;99.90;;;;;;5103313;27;20044;-66
2021/01/24 03:17:59;;;;;;;0.60;0.50;;;4.70;99.80;;;;;;5098931;28;20068;-66
2021/01/24 03:20:29;;;;;;;0.85;0.50;;;4.80;99.90;;;;;;5107779;28;20053;-66
2021/01/24 03:22:57;;;;;;;0.45;0.32;;;4.50;99.90;;;;;;5119126;28;20520;-66
2021/01/24 03:25:24;;;;;;;0.40;0.40;;;4.50;99.90;;;;;;5114007;27;20503;-66
2021/01/24 03:27:50;;;;;;;0.82;0.63;;;4.80;99.90;;;;;;5114490;28;20451;-66
2021/01/24 03:30:17;;;;;;;0.95;0.50;;;4.50;99.90;;;;;;5115905;27;20419;-66
2021/01/24 03:32:44;;;;;;;0.47;0.47;;;4.50;99.90;;;;;;5110800;28;20071;-66
2021/01/24 03:35:11;;;;;;;0.45;0.45;;;4.60;99.90;;;;;;5117784;27;20070;-66
2021/01/24 03:37:37;;;;;;;0.73;0.50;;;4.50;99.80;;;;;;5114620;28;20092;-66
2021/01/24 03:40:04;;;;;;;7.72;0.80;;;4.50;99.80;;;;;;5113649;27;20071;-66
2021/01/24 03:42:30;;;;;;;0.60;0.60;;;4.50;99.40;;;;;;5110415;28;20047;-66
2021/01/24 03:44:57;;;;;;;1.77;0.60;;;4.60;99.50;;;;;;5108581;28;20107;-66
2021/01/24 03:47:23;;;;;;;0.75;0.60;;;4.40;99.30;;;;;;5108654;27;20135;-66
2021/01/24 03:49:49;;;;;;;0.93;0.68;;;4.50;98.80;;;;;;5115199;27;20055;-66
2021/01/24 03:52:16;;;;;;;0.85;0.70;;;4.70;98.70;;;;;;5111541;28;20456;-66
2021/01/24 03:54:43;;;;;;;1.52;0.70;;;4.50;98.90;;;;;;5115335;28;20184;-66
2021/01/24 03:57:09;;;;;;;0.75;0.70;;;4.50;98.20;;;;;;5118077;28;20409;-66
2021/01/24 03:59:35;;;;;;;0.75;0.75;;;4.50;98.20;;;;;;5109400;28;20104;-66
2021/01/24 04:02:02;;;;;;;1.52;0.77;;;4.50;97.90;;;;;;5108145;27;20213;-66
2021/01/24 04:04:28;;;;;;;1.35;1.10;;;4.50;97.80;;;;;;5114582;28;20044;-66
2021/01/24 04:06:54;;;;;;;2.65;1.42;;;4.50;97.40;;;;;;5115326;27;20532;-66
2021/01/24 04:09:21;;;;;;;5.25;1.23;;;4.50;98.10;;;;;;5115794;28;20047;-66
2021/01/24 04:11:47;;;;;;;1.48;1.13;;;4.50;97.60;;;;;;5113323;28;20047;-66
2021/01/24 04:14:13;;;;;;;2.47;1.75;;;4.40;97.90;;;;;;5106261;27;20043;-66
2021/01/24 04:16:41;;;;;;;2.10;1.75;;;4.40;98.00;;;;;;5106462;28;20475;-66
2021/01/24 04:19:08;;;;;;;2.00;1.17;;;4.40;98.00;;;;;;5106377;28;20134;-66
2021/01/24 04:21:34;;;;;;;4.15;1.50;;;4.40;98.40;;;;;;5112344;28;20052;-66
2021/01/24 04:24:00;;;;;;;2.47;1.58;;;4.50;98.70;;;;;;5108359;28;20096;-64
2021/01/24 04:26:26;;;;;;;3.80;1.60;;;4.50;99.20;;;;;;5112091;28;20083;-65
2021/01/24 04:28:52;;;;;;;3.95;1.85;;;4.30;99.40;;;;;;5110904;27;20071;-64
2021/01/24 04:31:19;;;;;;;4.10;2.13;;;4.30;99.90;;;;;;5106505;28;20636;-65
2021/01/24 04:33:45;;;;;;;5.03;2.15;;;4.30;99.90;;;;;;5108736;28;20119;-66
2021/01/24 04:36:11;;;;;;;3.67;2.17;;;4.10;99.90;;;;;;5113851;28;20463;-65
2021/01/24 04:38:38;;;;;;;3.78;1.92;;;4.10;99.90;;;;;;5107962;28;20089;-65
2021/01/24 04:41:05;;;;;;;3.95;2.53;;;4.20;99.90;;;;;;5113737;28;20044;-65
2021/01/24 04:43:33;;;;;;;4.82;2.35;;;4.20;99.90;;;;;;5110541;28;20448;-65
2021/01/24 04:46:00;;;;;;;3.97;2.42;;;4.10;99.90;;;;;;5109542;28;20044;-65
2021/01/24 04:48:26;;;;;;;5.72;2.60;;;4.10;99.90;;;;;;5113637;28;20075;-65
2021/01/24 04:50:53;;;;;;;5.78;2.63;;;4.00;99.90;;;;;;5109427;28;20047;-65
2021/01/24 04:53:20;;;;;;;6.22;3.05;;;4.00;99.90;;;;;;5111671;28;20071;-65
2021/01/24 04:55:47;;;;;;;4.43;2.78;;;4.20;99.90;;;;;;5112381;28;20055;-65
2021/01/24 04:58:14;;;;;;;4.28;2.55;;;4.00;99.90;;;;;;5108561;28;20124;-66
2021/01/24 05:00:41;;;;;;;7.57;3.58;;;4.10;99.90;;;;;;5110612;28;20421;-65
2021/01/24 05:03:07;;;;;;;5.63;2.60;;;4.10;99.90;;;;;;5110458;28;20483;-66
2021/01/24 05:05:34;;;;;;;8.25;2.70;;;4.00;99.30;;;;;;5109112;28;20054;-66
2021/01/24 05:08:00;;;;;;;4.20;2.65;;;4.10;99.50;;;;;;5103950;28;20498;-66
2021/01/24 05:10:28;;;;;;;5.13;2.60;;;4.00;99.20;;;;;;5109435;28;20159;-66
2021/01/24 05:12:56;;;;;;;8.38;3.00;;;4.00;98.40;;;;;;5110354;28;20127;-66
2021/01/24 05:15:23;;;;;;;6.28;2.85;;;4.10;98.60;;;;;;5107320;28;20104;-67
2021/01/24 05:17:58;;;;;;;4.47;2.63;;;4.10;98.20;;;;;;5106125;28;20075;-66
2021/01/24 05:20:27;;;;;;;3.33;1.77;;;4.00;97.40;;;;;;5111439;28;20051;-66
2021/01/24 05:22:55;;;;;;;6.47;2.50;;;4.10;96.70;;;;;;5112544;28;20047;-66
2021/01/24 05:25:24;;;;;;;4.32;2.25;;;4.10;96.40;;;;;;5107452;28;20478;-66
2021/01/24 05:27:50;;;;;;;5.78;2.40;;;4.00;96.00;;;;;;5108553;28;20131;-66
2021/01/24 05:30:30;;;;;;;3.15;2.10;;;4.30;96.00;;;;;;5108504;28;20094;-66
2021/01/24 05:32:58;;;;;;;4.53;2.22;;;4.00;95.50;;;;;;5107240;28;20126;-66
2021/01/24 05:35:26;;;;;;;3.95;2.10;;;4.00;95.50;;;;;;5112470;28;20083;-66
2021/01/24 05:37:53;;;;;;;4.55;2.53;;;3.90;95.50;;;;;;5110082;28;20135;-65
2021/01/24 05:40:20;;;;;;;7.72;2.42;;;3.90;95.10;;;;;;5100100;28;20075;-65
2021/01/24 05:42:46;;;;;;;5.25;1.80;;;3.90;95.60;;;;;;5105892;28;20105;-66
2021/01/24 05:45:17;;;;;;;2.65;1.38;;;4.00;95.60;;;;;;5103926;28;20091;-66
2021/01/24 05:47:47;;;;;;;2.80;1.88;;;4.00;95.00;;;;;;5109686;28;20086;-66
2021/01/24 05:50:16;;;;;;;2.67;1.67;;;3.80;95.10;;;;;;5108132;28;20044;-66
2021/01/24 05:52:48;;;;;;;3.13;1.58;;;3.80;95.20;;;;;;5104190;28;20137;-65
2021/01/24 05:55:34;;;;;;;4.15;2.08;;;3.70;95.20;;;;;;5113121;28;20112;-66
2021/01/24 05:58:14;;;;;;;1.90;1.25;;;3.70;95.90;;;;;;5104832;28;20457;-66
2021/01/24 06:00:45;;;;;;;2.63;1.67;;;3.80;96.00;;;;;;5103610;28;20043;-66
2021/01/24 06:03:12;;;;;;;7.90;2.33;;;3.70;96.30;;;;;;5112129;28;20063;-65
2021/01/24 06:05:39;;;;;;;3.50;1.85;;;3.80;96.30;;;;;;5100224;28;20064;-65
2021/01/24 06:08:06;;;;;;;3.40;1.17;;;3.60;96.60;;;;;;5104608;28;20097;-66
2021/01/24 06:10:33;;;;;;;4.47;1.42;;;3.70;96.40;;;;;;5099016;27;20087;-65
2021/01/24 06:13:00;;;;;;;4.95;2.30;;;3.60;96.50;;;;;;5110359;28;20075;-65
2021/01/24 06:15:31;;;;;;;3.97;2.13;;;3.80;96.80;;;;;;5108351;28;20161;-65
2021/01/24 06:18:00;;;;;;;3.53;2.40;;;3.50;96.60;;;;;;5110540;28;20127;-65
2021/01/24 06:20:37;;;;;;;3.25;1.77;;;3.80;96.70;;;;;;5110568;28;20071;-65
2021/01/24 06:23:26;;;;;;;4.80;2.67;;;3.70;96.10;;;;;;5107552;28;20130;-65
2021/01/24 06:25:58;;;;;;;5.13;1.90;;;3.80;96.40;;;;;;5096060;28;20047;-65
2021/01/24 06:28:30;;;;;;;2.58;1.45;;;3.50;96.00;;;;;;5105781;28;20056;-65
2021/01/24 06:30:57;;;;;;;4.05;2.42;;;3.60;96.00;;;;;;5108060;28;20052;-65
2021/01/24 06:33:24;;;;;;;3.60;1.92;;;3.80;96.10;;;;;;5111673;28;20434;-65
2021/01/24 06:36:02;;;;;;;3.10;2.25;;;3.80;96.20;;;;;;5112147;28;20051;-66
2021/01/24 06:38:34;;;;;;;3.33;2.08;;;3.80;96.40;;;;;;5108923;28;20538;-65
2021/01/24 06:41:05;;;;;;;3.72;1.92;;;3.60;96.50;;;;;;5104539;28;20039;-66
2021/01/24 06:43:34;;;;;;;3.88;2.03;;;3.50;96.50;;;;;;5111264;28;20131;-65
2021/01/24 06:46:01;;;;;;;2.30;1.65;;;3.50;96.80;;;;;;5106591;28;20078;-65
2021/01/24 06:48:44;;;;;;;4.05;2.17;;;3.50;96.60;;;;;;5112204;28;20059;-65
2021/01/24 06:51:32;;;;;;;2.97;2.00;;;3.50;96.80;;;;;;5110726;28;20058;-65
2021/01/24 06:54:28;;;;;;;5.93;2.15;;;3.50;96.50;;;;;;5106488;28;20168;-65
2021/01/24 06:57:06;;;;;;;2.25;1.55;;;3.80;96.60;;;;;;5109556;28;20450;-66
2021/01/24 06:59:33;;;;;;;4.97;2.53;;;3.50;96.20;;;;;;5112127;28;20391;-66
2021/01/24 07:02:19;;;;;;;3.83;2.25;;;3.50;96.30;;;;;;5105901;28;20082;-65
2021/01/24 07:05:08;;;;;;;6.97;1.90;;;3.80;96.20;;;;;;5103983;28;20048;-66
2021/01/24 07:07:36;;;;;;;2.88;1.73;;;3.70;95.60;;;;;;5103882;28;20129;-65
2021/01/24 07:10:05;;;;;;;6.45;2.08;;;3.70;95.80;;;;;;5100485;28;20056;-65
2021/01/24 07:12:40;;;;;;;5.15;2.10;;;3.60;95.60;;;;;;5100161;28;20090;-65
2021/01/24 07:15:18;;;;;;;3.10;1.45;;;3.90;95.40;;;;;;5111540;28;20082;-65
2021/01/24 07:17:53;;;;;;;3.10;1.95;;;3.90;95.50;;;;;;5108178;28;20074;-65
2021/01/24 07:20:20;;;;;;;6.13;2.42;;;3.50;95.30;;;;;;5098409;28;20122;-66
2021/01/24 07:22:47;;;;;;;3.83;2.08;;;3.60;95.80;;;;;;5105549;28;20071;-65
2021/01/24 07:25:13;;;;;;;3.92;1.30;;;3.50;96.00;;;;;;5105828;28;20075;-65
2021/01/24 07:27:42;;;;;;;4.22;2.50;;;3.50;96.40;;;;;;5108746;28;20035;-65
2021/01/24 07:30:10;;;;;;;3.28;2.35;;;3.60;97.00;;;;;;5110217;28;20042;-65
2021/01/24 07:32:39;;;;;;;4.65;1.25;;;3.70;97.60;;;;;;5104986;28;20048;-66
2021/01/24 07:35:06;;;;;;;1.70;1.40;;;3.30;97.90;;;;;;5107105;28;20039;-66
2021/01/24 07:37:36;;;;;;;2.85;1.70;;;3.40;98.50;;;;;;5105645;28;20430;-67
2021/01/24 07:40:03;;;;;;;2.53;1.52;;;3.30;98.90;;;;;;5105949;28;20071;-67
2021/01/24 07:42:31;;;;;;;3.17;2.25;;;3.20;99.00;;;;;;5107919;28;20108;-67
2021/01/24 07:44:58;;;;;;;6.30;2.70;;;3.20;99.20;;;;;;5107944;28;20116;-67
2021/01/24 07:47:24;;;;;;;4.10;2.75;;;3.20;99.30;;;;;;5098929;28;20447;-67
2021/01/24 07:49:54;;;;;;;3.05;1.27;;;3.30;99.50;;;;;;5102525;28;20131;-64
2021/01/24 07:52:20;;;;;;;3.70;2.03;;;3.40;99.40;;;;;;5106162;28;20138;-66
2021/01/24 07:54:47;;;;;;;3.92;2.15;;;3.40;99.50;;;;;;5106223;28;20044;-65
2021/01/24 07:57:13;;;;;;;6.78;3.17;;;3.20;99.40;;;;;;5115517;28;20048;-65
2021/01/24 07:59:40;;;;;;;3.75;2.58;;;3.30;99.40;;;;;;5108957;28;20048;-66
2021/01/24 08:02:06;;;;;;;7.75;2.78;;;3.40;99.50;;;;;;5112682;27;20047;-66
2021/01/24 08:04:36;;;;;;;7.13;2.95;;;3.30;99.20;;;;;;5114073;28;20152;-67
2021/01/24 08:07:09;;;;;;;5.10;2.60;;;3.20;99.10;;;;;;5103797;28;20051;-66
2021/01/24 08:09:35;;;;;;;4.57;2.83;;;3.30;99.10;;;;;;5115071;28;20305;-65
2021/01/24 08:12:12;;;;;;;5.60;3.53;;;3.30;99.00;;;;;;5107731;28;20082;-66
2021/01/24 08:14:39;;;;;;;6.50;2.95;;;3.50;98.90;;;;;;5109014;28;20067;-65
2021/01/24 08:17:13;;;;;;;4.78;2.53;;;3.50;98.90;;;;;;5104769;27;20048;-65
2021/01/24 08:19:41;;;;;;;6.60;2.83;;;3.30;98.40;;;;;;5109008;28;20101;-66
2021/01/24 08:22:07;;;;;;;5.20;2.85;;;3.30;98.60;;;;;;5114738;28;20459;-66
2021/01/24 08:24:34;;;;;;;3.63;2.40;;;3.40;98.50;;;;;;5111218;27;20124;-66
2021/01/24 08:27:00;;;;;;;5.63;2.88;;;3.40;98.20;;;;;;5107661;28;20043;-66
2021/01/24 08:29:34;;;;;;;8.00;2.80;;;3.60;98.30;;;;;;5112691;28;20051;-65
2021/01/24 08:32:02;;;;;;;4.97;3.05;;;3.60;98.10;;;;;;5109588;28;20082;-66
2021/01/24 08:34:30;;;;;;;6.32;2.92;;;3.70;98.40;;;;;;5108709;28;20048;-66
2021/01/24 08:36:56;;;;;;;5.30;2.97;;;3.70;97.80;;;;;;5113268;28;20040;-68
2021/01/24 08:39:24;;;;;;;2.78;1.73;;;3.80;97.80;;;;;;5111041;28;20055;-66
2021/01/24 08:41:53;;;;;;;6.05;2.80;;;3.80;97.10;;;;;;5114211;28;20044;-65
2021/01/24 08:44:20;;;;;;;4.35;2.88;;;3.60;97.10;;;;;;5111303;28;20048;-65
2021/01/24 08:46:48;;;;;;;4.47;2.88;;;3.50;96.80;;;;;;5110792;28;20047;-65
2021/01/24 08:49:22;;;;;;;1.88;1.33;;;3.70;96.90;;;;;;5111346;28;20815;-66
2021/01/24 08:51:59;;;;;;;6.65;3.38;;;3.60;96.30;;;;;;5114003;27;20475;-65
2021/01/24 08:54:25;;;;;;;7.55;3.08;;;4.00;96.50;;;;;;5108327;27;20075;-67
2021/01/24 08:57:09;;;;;;;6.97;2.63;;;3.70;96.50;;;;;;5109433;28;20096;-66
2021/01/24 08:59:59;;;;;;;3.75;2.25;;;3.80;96.00;;;;;;5113978;28;20043;-65
2021/01/24 09:02:39;;;;;;;7.00;2.85;;;3.80;95.80;;;;;;5105695;28;20040;-65
2021/01/24 09:05:08;;;;;;;7.13;3.15;;;3.90;95.60;;;;;;5101649;28;20448;-66
2021/01/24 09:07:42;;;;;;;4.68;2.22;;;3.80;95.30;;;;;;5107204;28;20101;-65
2021/01/24 09:10:21;;;;;;;4.88;2.95;;;4.10;95.30;;;;;;5107891;27;20057;-65
2021/01/24 09:13:06;;;;;;;4.15;2.80;;;4.00;95.00;;;;;;5110797;28;20059;-66
2021/01/24 09:15:33;;;;;;;4.68;2.85;;;4.10;94.70;;;;;;5107724;28;20119;-65
2021/01/24 09:18:01;;;;;;;5.60;3.00;;;4.30;94.60;;;;;;5109948;28;20433;-66
2021/01/24 09:20:29;;;;;;;5.80;2.97;;;4.20;94.60;;;;;;5106936;28;20052;-65
2021/01/24 09:22:55;;;;;;;3.05;2.05;;;4.10;94.70;;;;;;5112410;28;20090;-65
2021/01/24 09:25:21;;;;;;;5.00;2.90;;;3.90;94.30;;;;;;5107540;28;20047;-65
2021/01/24 09:27:48;;;;;;;10.65;3.10;;;4.00;94.10;;;;;;5105352;28;20077;-65
2021/01/24 09:30:17;;;;;;;4.55;2.85;;;4.00;94.30;;;;;;5102643;28;20125;-65
2021/01/24 09:32:44;;;;;;;6.77;2.37;;;4.00;94.10;;;;;;5106075;28;20043;-66
2021/01/24 09:35:11;;;;;;;2.25;1.42;;;4.00;94.10;;;;;;5110793;28;20203;-65
2021/01/24 09:37:38;;;;;;;6.70;3.35;;;4.00;93.70;;;;;;5109553;28;20052;-66
2021/01/24 09:40:05;;;;;;;8.55;2.78;;;4.00;94.00;;;;;;5105290;28;20044;-65
2021/01/24 09:42:32;;;;;;;6.53;2.78;;;4.00;93.60;;;;;;5110973;28;20754;-65
2021/01/24 09:44:58;;;;;;;4.22;2.63;;;4.30;93.40;;;;;;5110317;28;20039;-65
2021/01/24 09:47:25;;;;;;;5.32;2.60;;;4.00;93.40;;;;;;5099536;28;20363;-66
2021/01/24 09:49:51;;;;;;;5.35;2.45;;;4.10;93.40;;;;;;5112307;28;20057;-66
2021/01/24 09:52:18;;;;;;;8.98;3.25;;;4.10;93.10;;;;;;5108873;28;20494;-65
2021/01/24 09:54:44;;;;;;;5.40;3.00;;;4.30;93.20;;;;;;5107297;28;20071;-65
2021/01/24 09:57:10;;;;;;;9.20;2.88;;;4.20;93.20;;;;;;5112077;28;20071;-65
2021/01/24 09:59:36;;;;;;;3.40;1.65;;;4.20;93.20;;;;;;5106957;28;20092;-66
2021/01/24 10:02:03;;;;;;;3.42;2.35;;;4.20;92.90;;;;;;5098309;28;20184;-66
2021/01/24 10:04:29;;;;;;;5.50;3.25;;;4.20;92.90;;;;;;5108831;28;20047;-66
2021/01/24 10:06:55;;;;;;;5.97;3.00;;;4.30;93.10;;;;;;5109562;28;20096;-66
2021/01/24 10:09:22;;;;;;;2.53;1.48;;;4.20;92.80;;;;;;5104194;28;20126;-66
2021/01/24 10:11:49;;;;;;;3.63;2.45;;;4.20;92.70;;;;;;5103092;28;20047;-66
2021/01/24 10:14:17;;;;;;;5.28;3.08;;;4.50;92.80;;;;;;5097185;28;20043;-66
2021/01/24 10:16:44;;;;;;;2.60;1.75;;;4.40;92.80;;;;;;5109666;28;20135;-66
2021/01/24 10:19:11;;;;;;;4.03;2.40;;;4.30;92.60;;;;;;5105549;28;20043;-67
2021/01/24 10:21:37;;;;;;;11.82;3.10;;;4.60;92.60;;;;;;5108870;28;20540;-66
2021/01/24 10:24:04;;;;;;;3.90;2.80;;;4.50;92.90;;;;;;5108593;28;20126;-66
2021/01/24 10:26:30;;;;;;;1.77;1.00;;;4.30;92.30;;;;;;5103476;28;20059;-66
2021/01/24 10:28:56;;;;;;;2.95;1.90;;;4.50;92.20;;;;;;5100904;28;20496;-66
2021/01/24 10:31:22;;;;;;;3.70;2.33;;;4.20;92.40;;;;;;5105275;28;20051;-66
2021/01/24 10:33:49;;;;;;;4.25;2.47;;;4.30;92.40;;;;;;5103075;28;20052;-66
2021/01/24 10:36:15;;;;;;;4.68;3.00;;;4.40;92.30;;;;;;5111405;28;20055;-66
2021/01/24 10:38:43;;;;;;;4.68;2.88;;;4.40;92.40;;;;;;5105115;28;20096;-65
2021/01/24 10:41:09;;;;;;;9.70;3.17;;;4.30;92.40;;;;;;5110266;28;20467;-66
2021/01/24 10:43:35;;;;;;;3.67;2.33;;;4.40;92.40;;;;;;5110195;28;20502;-65
2021/01/24 10:46:01;;;;;;;7.60;3.33;;;4.30;92.00;;;;;;5108932;28;20445;-66
2021/01/24 10:48:28;;;;;;;8.02;3.28;;;4.40;92.30;;;;;;5107990;28;20067;-66
2021/01/24 10:50:54;;;;;;;8.13;3.33;;;4.20;92.20;;;;;;5108909;28;20149;-66
2021/01/24 10:53:20;;;;;;;6.03;2.63;;;4.40;92.20;;;;;;5107379;28;20086;-67
2021/01/24 10:55:47;;;;;;;2.53;1.50;;;4.50;92.30;;;;;;5111082;28;20047;-66
2021/01/24 10:58:13;;;;;;;8.02;2.83;;;4.30;91.90;;;;;;5107125;28;20048;-66
2021/01/24 11:00:40;;;;;;;8.48;3.70;;;4.40;92.10;;;;;;5107255;28;20052;-66
2021/01/24 11:03:06;;;;;;;5.35;2.35;;;4.40;92.10;;;;;;5106967;28;20048;-66
2021/01/24 11:05:33;;;;;;;4.55;2.35;;;4.40;91.70;;;;;;5107141;28;20046;-65
2021/01/24 11:07:59;;;;;;;6.20;3.22;;;4.40;91.70;;;;;;5106768;28;20040;-65
2021/01/24 11:10:26;;;;;;;5.25;3.17;;;4.50;91.70;;;;;;5100296;28;20089;-66
2021/01/24 11:12:53;;;;;;;3.65;2.28;;;4.40;91.60;;;;;;5106560;28;20131;-65
2021/01/24 11:15:19;;;;;;;5.95;3.03;;;4.60;91.30;;;;;;5106564;28;20071;-65
2021/01/24 11:17:45;;;;;;;3.13;1.98;;;4.40;91.30;;;;;;5105988;28;20455;-66
2021/01/24 11:20:12;;;;;;;8.13;2.58;;;4.40;91.00;;;;;;5106476;28;20040;-65
2021/01/24 11:22:38;;;;;;;4.97;2.95;;;4.50;91.10;;;;;;5102824;28;20458;-65
2021/01/24 11:25:06;;;;;;;6.25;2.35;;;4.50;91.20;;;;;;5110625;28;20078;-66
2021/01/24 11:27:34;;;;;;;7.07;2.97;;;4.50;90.80;;;;;;5106867;28;20059;-65
2021/01/24 11:30:01;;;;;;;5.22;2.50;;;4.50;90.90;;;;;;5113162;28;20105;-65
2021/01/24 11:32:27;;;;;;;7.60;3.38;;;4.50;90.60;;;;;;5109994;28;20047;-65
2021/01/24 11:35:08;;;;;;;6.10;2.47;;;4.70;90.80;;;;;;5112994;28;20413;-65
2021/01/24 11:37:35;;;;;;;4.18;2.42;;;4.70;90.60;;;;;;5101771;28;20050;-66
2021/01/24 11:40:03;;;;;;;3.20;1.75;;;4.60;90.50;;;;;;5109587;28;20039;-65
2021/01/24 11:42:31;;;;;;;6.38;2.90;;;4.60;90.00;;;;;;5113221;27;20058;-66
2021/01/24 11:44:57;;;;;;;4.40;2.78;;;4.90;90.60;;;;;;5115483;28;20055;-66
2021/01/24 11:47:26;;;;;;;8.57;3.17;;;4.70;89.90;;;;;;5107670;28;20047;-66
2021/01/24 11:49:53;;;;;;;6.07;3.25;;;4.70;90.20;;;;;;5111504;28;20047;-66
2021/01/24 11:52:19;;;;;;;3.65;2.58;;;4.90;90.20;;;;;;5105553;28;20086;-65
2021/01/24 11:54:45;;;;;;;5.32;1.98;;;4.70;89.90;;;;;;5104595;28;20047;-67
2021/01/24 11:57:11;;;;;;;3.97;2.47;;;4.70;89.30;;;;;;5102911;28;20093;-66
2021/01/24 11:59:38;;;;;;;5.78;2.35;;;4.70;89.20;;;;;;5111209;28;20067;-66
2021/01/24 12:02:04;;;;;;;4.20;2.67;;;4.70;89.60;;;;;;5105732;28;20459;-66
2021/01/24 12:04:30;;;;;;;3.72;2.42;;;5.00;89.20;;;;;;5114982;28;20054;-65
2021/01/24 12:06:57;;;;;;;3.78;2.45;;;4.80;89.60;;;;;;5111236;28;20052;-65
2021/01/24 12:09:23;;;;;;;9.05;2.67;;;4.80;89.00;;;;;;5098240;28;20052;-65
2021/01/24 12:11:49;;;;;;;3.75;1.75;;;4.90;89.10;;;;;;5115452;28;20048;-64
2021/01/24 12:14:15;;;;;;;6.60;3.03;;;4.80;87.90;;;;;;5109405;28;20047;-65
2021/01/24 12:16:42;;;;;;;3.08;1.70;;;4.90;89.00;;;;;;5107330;28;20078;-66
2021/01/24 12:19:08;;;;;;;4.65;2.67;;;4.80;88.20;;;;;;5111818;28;20352;-65
2021/01/24 12:21:35;;;;;;;7.10;3.00;;;4.90;88.40;;;;;;5110426;28;20130;-66
2021/01/24 12:24:02;;;;;;;7.78;2.90;;;4.90;87.90;;;;;;5112690;28;20148;-66
2021/01/24 12:26:29;;;;;;;3.95;2.60;;;4.90;87.80;;;;;;5112410;28;20051;-66
2021/01/24 12:28:55;;;;;;;4.45;2.90;;;4.90;87.90;;;;;;5109737;28;20039;-66
2021/01/24 12:31:22;;;;;;;9.65;2.00;;;5.00;87.80;;;;;;5108748;28;20096;-66
2021/01/24 12:33:48;;;;;;;4.45;2.13;;;4.90;86.40;;;;;;5109867;28;20051;-66
2021/01/24 12:36:14;;;;;;;6.57;2.97;;;4.80;86.10;;;;;;5109882;28;20080;-66
2021/01/24 12:38:41;;;;;;;5.43;2.30;;;5.00;86.50;;;;;;5111327;28;20157;-66
2021/01/24 12:41:07;;;;;;;6.15;2.58;;;5.20;86.40;;;;;;5104110;28;20531;-65
2021/01/24 12:43:33;;;;;;;6.10;2.13;;;5.60;85.50;;;;;;5113540;28;20535;-65
2021/01/24 12:46:00;;;;;;;3.78;2.15;;;6.30;82.90;;;;;;5106173;28;20487;-66
2021/01/24 12:48:26;;;;;;;5.25;2.65;;;6.00;82.10;;;;;;5105321;28;20079;-66
2021/01/24 12:50:52;;;;;;;2.67;1.52;;;5.90;82.80;;;;;;5114752;28;20048;-66
2021/01/24 12:53:18;;;;;;;4.53;2.28;;;5.80;82.30;;;;;;5110617;28;20478;-65
2021/01/24 12:55:45;;;;;;;5.00;1.83;;;5.90;82.50;;;;;;5105351;27;20059;-66
2021/01/24 12:58:11;;;;;;;5.82;1.95;;;5.80;81.70;;;;;;5114066;28;20083;-67
2021/01/24 13:00:37;;;;;;;4.68;2.00;;;5.90;81.20;;;;;;5109157;28;20051;-66
2021/01/24 13:03:03;;;;;;;3.47;1.90;;;5.60;81.30;;;;;;5113032;28;20090;-66
2021/01/24 13:05:30;;;;;;;6.28;2.28;;;5.70;81.30;;;;;;5112838;28;20086;-66